sensor_id;sensor_type;location;lat;lon;timestamp;temperature;humidity
42989;DHT22;28622;43.716;20.668;2022-09-30T00:00:26;18.00;99.90
42989;DHT22;28622;43.716;20.668;2022-09-30T00:02:52;18.00;99.90
42989;DHT22;28622;43.716;20.668;2022-09-30T00:05:18;18.00;99.90
42989;DHT22;28622;43.716;20.668;2022-09-30T00:07:44;18.00;99.90
42989;DHT22;28622;43.716;20.668;2022-09-30T00:10:09;18.00;99.90
42989;DHT22;28622;43.716;20.668;2022-09-30T00:12:35;18.00;99.90
42989;DHT22;28622;43.716;20.668;2022-09-30T00:15:01;18.10;99.90
42989;DHT22;28622;43.716;20.668;2022-09-30T00:17:27;18.00;99.90
42989;DHT22;28622;43.716;20.668;2022-09-30T00:19:52;17.80;99.90
42989;DHT22;28622;43.716;20.668;2022-09-30T00:22:18;17.60;99.90
42989;DHT22;28622;43.716;20.668;2022-09-30T00:24:44;17.60;99.90
42989;DHT22;28622;43.716;20.668;2022-09-30T00:27:11;17.60;99.90
42989;DHT22;28622;43.716;20.668;2022-09-30T00:29:37;17.60;99.90
42989;DHT22;28622;43.716;20.668;2022-09-30T00:32:03;17.70;99.90
42989;DHT22;28622;43.716;20.668;2022-09-30T00:34:28;17.80;99.90
42989;DHT22;28622;43.716;20.668;2022-09-30T00:36:54;17.80;99.90
42989;DHT22;28622;43.716;20.668;2022-09-30T00:39:26;17.80;99.90
42989;DHT22;28622;43.716;20.668;2022-09-30T00:41:59;17.70;99.90
42989;DHT22;28622;43.716;20.668;2022-09-30T00:47:40;17.70;99.90
42989;DHT22;28622;43.716;20.668;2022-09-30T00:52:35;17.60;99.90
42989;DHT22;28622;43.716;20.668;2022-09-30T00:55:03;17.60;99.90
42989;DHT22;28622;43.716;20.668;2022-09-30T00:57:30;17.60;99.90
42989;DHT22;28622;43.716;20.668;2022-09-30T00:59:56;17.50;99.90
42989;DHT22;28622;43.716;20.668;2022-09-30T01:02:22;17.50;99.90
42989;DHT22;28622;43.716;20.668;2022-09-30T01:04:48;17.40;99.90
42989;DHT22;28622;43.716;20.668;2022-09-30T01:07:14;17.30;99.90
42989;DHT22;28622;43.716;20.668;2022-09-30T01:09:41;17.20;99.90
42989;DHT22;28622;43.716;20.668;2022-09-30T01:12:20;17.10;99.90
42989;DHT22;28622;43.716;20.668;2022-09-30T01:14:48;17.00;99.90
42989;DHT22;28622;43.716;20.668;2022-09-30T01:41:11;17.10;99.90
42989;DHT22;28622;43.716;20.668;2022-09-30T01:49:11;17.00;99.90
42989;DHT22;28622;43.716;20.668;2022-09-30T01:57:27;17.00;99.90
42989;DHT22;28622;43.716;20.668;2022-09-30T01:59:56;17.20;99.90
42989;DHT22;28622;43.716;20.668;2022-09-30T02:02:26;17.20;99.90
42989;DHT22;28622;43.716;20.668;2022-09-30T02:05:00;17.30;99.90
42989;DHT22;28622;43.716;20.668;2022-09-30T02:07:35;17.30;99.90
42989;DHT22;28622;43.716;20.668;2022-09-30T02:10:30;17.30;99.90
42989;DHT22;28622;43.716;20.668;2022-09-30T02:13:08;17.40;99.90
42989;DHT22;28622;43.716;20.668;2022-09-30T02:15:36;17.50;99.90
42989;DHT22;28622;43.716;20.668;2022-09-30T02:18:12;17.50;99.90
42989;DHT22;28622;43.716;20.668;2022-09-30T02:20:48;17.50;99.90
42989;DHT22;28622;43.716;20.668;2022-09-30T02:23:21;17.40;99.90
42989;DHT22;28622;43.716;20.668;2022-09-30T02:26:16;17.40;99.90
42989;DHT22;28622;43.716;20.668;2022-09-30T02:28:50;17.30;99.90
42989;DHT22;28622;43.716;20.668;2022-09-30T02:31:21;17.30;99.90
42989;DHT22;28622;43.716;20.668;2022-09-30T02:34:15;17.30;99.90
42989;DHT22;28622;43.716;20.668;2022-09-30T02:36:50;17.40;99.90
42989;DHT22;28622;43.716;20.668;2022-09-30T02:39:28;17.40;99.90
42989;DHT22;28622;43.716;20.668;2022-09-30T02:42:01;17.40;99.90
42989;DHT22;28622;43.716;20.668;2022-09-30T02:44:29;17.40;99.90
42989;DHT22;28622;43.716;20.668;2022-09-30T02:47:08;17.30;99.90
42989;DHT22;28622;43.716;20.668;2022-09-30T02:58:13;17.10;99.90
42989;DHT22;28622;43.716;20.668;2022-09-30T03:00:41;17.00;99.90
42989;DHT22;28622;43.716;20.668;2022-09-30T03:03:14;17.00;99.90
42989;DHT22;28622;43.716;20.668;2022-09-30T03:05:42;17.00;99.90
42989;DHT22;28622;43.716;20.668;2022-09-30T03:08:09;17.00;99.90
42989;DHT22;28622;43.716;20.668;2022-09-30T03:10:35;17.00;99.90
42989;DHT22;28622;43.716;20.668;2022-09-30T03:13:15;17.10;99.90
42989;DHT22;28622;43.716;20.668;2022-09-30T03:34:43;17.20;99.90
42989;DHT22;28622;43.716;20.668;2022-09-30T03:40:00;17.00;99.90
42989;DHT22;28622;43.716;20.668;2022-09-30T03:42:55;16.90;99.90
42989;DHT22;28622;43.716;20.668;2022-09-30T03:45:33;16.90;99.90
42989;DHT22;28622;43.716;20.668;2022-09-30T03:48:03;16.90;99.90
42989;DHT22;28622;43.716;20.668;2022-09-30T03:50:31;16.80;99.90
42989;DHT22;28622;43.716;20.668;2022-09-30T03:52:58;16.70;99.90
42989;DHT22;28622;43.716;20.668;2022-09-30T03:55:24;16.60;99.90
42989;DHT22;28622;43.716;20.668;2022-09-30T03:57:51;16.60;99.90
42989;DHT22;28622;43.716;20.668;2022-09-30T04:00:18;16.70;99.90
42989;DHT22;28622;43.716;20.668;2022-09-30T04:02:44;16.70;99.90
42989;DHT22;28622;43.716;20.668;2022-09-30T04:05:10;16.70;99.90
42989;DHT22;28622;43.716;20.668;2022-09-30T04:07:36;16.60;99.90
42989;DHT22;28622;43.716;20.668;2022-09-30T04:10:03;16.70;99.90
42989;DHT22;28622;43.716;20.668;2022-09-30T04:12:30;16.70;99.90
42989;DHT22;28622;43.716;20.668;2022-09-30T04:14:55;16.70;99.90
42989;DHT22;28622;43.716;20.668;2022-09-30T04:17:21;16.70;99.90
42989;DHT22;28622;43.716;20.668;2022-09-30T04:19:47;16.70;99.90
42989;DHT22;28622;43.716;20.668;2022-09-30T04:22:13;16.70;99.90
42989;DHT22;28622;43.716;20.668;2022-09-30T04:24:39;16.70;99.90
42989;DHT22;28622;43.716;20.668;2022-09-30T04:27:05;16.70;99.90
42989;DHT22;28622;43.716;20.668;2022-09-30T04:29:30;16.60;99.90
42989;DHT22;28622;43.716;20.668;2022-09-30T04:31:56;16.60;99.90
42989;DHT22;28622;43.716;20.668;2022-09-30T04:34:22;16.70;99.90
42989;DHT22;28622;43.716;20.668;2022-09-30T04:36:48;16.80;99.90
42989;DHT22;28622;43.716;20.668;2022-09-30T04:39:13;16.80;99.90
42989;DHT22;28622;43.716;20.668;2022-09-30T04:41:39;16.80;99.90
42989;DHT22;28622;43.716;20.668;2022-09-30T04:44:05;16.90;99.90
42989;DHT22;28622;43.716;20.668;2022-09-30T04:46:34;16.80;99.90
42989;DHT22;28622;43.716;20.668;2022-09-30T04:49:02;16.80;99.90
42989;DHT22;28622;43.716;20.668;2022-09-30T04:51:28;16.80;99.90
42989;DHT22;28622;43.716;20.668;2022-09-30T04:53:55;16.90;99.90
42989;DHT22;28622;43.716;20.668;2022-09-30T04:56:21;16.90;99.90
42989;DHT22;28622;43.716;20.668;2022-09-30T04:58:48;17.00;99.90
42989;DHT22;28622;43.716;20.668;2022-09-30T05:01:15;17.00;99.90
42989;DHT22;28622;43.716;20.668;2022-09-30T05:03:42;17.10;99.90
42989;DHT22;28622;43.716;20.668;2022-09-30T05:06:12;17.10;99.90
42989;DHT22;28622;43.716;20.668;2022-09-30T05:08:39;17.10;99.90
42989;DHT22;28622;43.716;20.668;2022-09-30T05:11:09;17.10;99.90
42989;DHT22;28622;43.716;20.668;2022-09-30T05:13:39;17.10;99.90
42989;DHT22;28622;43.716;20.668;2022-09-30T05:16:06;17.10;99.90
42989;DHT22;28622;43.716;20.668;2022-09-30T05:18:32;17.10;99.90
42989;DHT22;28622;43.716;20.668;2022-09-30T05:21:02;17.10;99.90
42989;DHT22;28622;43.716;20.668;2022-09-30T05:23:29;17.20;99.90
42989;DHT22;28622;43.716;20.668;2022-09-30T05:25:56;17.20;99.90
42989;DHT22;28622;43.716;20.668;2022-09-30T05:28:22;17.30;99.90
42989;DHT22;28622;43.716;20.668;2022-09-30T05:30:48;17.30;99.90
42989;DHT22;28622;43.716;20.668;2022-09-30T05:33:18;17.30;99.90
42989;DHT22;28622;43.716;20.668;2022-09-30T05:35:44;17.30;99.90
42989;DHT22;28622;43.716;20.668;2022-09-30T05:38:10;17.30;99.90
42989;DHT22;28622;43.716;20.668;2022-09-30T05:40:37;17.30;99.90
42989;DHT22;28622;43.716;20.668;2022-09-30T05:43:04;17.40;99.90
42989;DHT22;28622;43.716;20.668;2022-09-30T05:45:30;17.40;99.90
42989;DHT22;28622;43.716;20.668;2022-09-30T05:47:56;17.40;99.90
42989;DHT22;28622;43.716;20.668;2022-09-30T05:50:23;17.50;99.90
42989;DHT22;28622;43.716;20.668;2022-09-30T05:52:49;17.40;99.90
42989;DHT22;28622;43.716;20.668;2022-09-30T05:55:17;17.50;99.90
42989;DHT22;28622;43.716;20.668;2022-09-30T05:57:43;17.50;99.90
42989;DHT22;28622;43.716;20.668;2022-09-30T06:00:12;17.50;99.90
42989;DHT22;28622;43.716;20.668;2022-09-30T06:02:38;17.50;99.90
42989;DHT22;28622;43.716;20.668;2022-09-30T06:05:06;17.60;99.90
42989;DHT22;28622;43.716;20.668;2022-09-30T06:07:33;17.60;99.90
42989;DHT22;28622;43.716;20.668;2022-09-30T06:10:02;17.70;99.90
42989;DHT22;28622;43.716;20.668;2022-09-30T06:12:28;17.70;99.90
42989;DHT22;28622;43.716;20.668;2022-09-30T06:14:54;17.60;99.90
42989;DHT22;28622;43.716;20.668;2022-09-30T06:17:21;17.60;99.90
42989;DHT22;28622;43.716;20.668;2022-09-30T06:19:47;17.60;99.90
42989;DHT22;28622;43.716;20.668;2022-09-30T06:22:17;17.60;99.90
42989;DHT22;28622;43.716;20.668;2022-09-30T06:24:46;17.60;99.90
42989;DHT22;28622;43.716;20.668;2022-09-30T06:27:12;17.60;99.90
42989;DHT22;28622;43.716;20.668;2022-09-30T06:29:38;17.70;99.90
42989;DHT22;28622;43.716;20.668;2022-09-30T06:32:05;17.70;99.90
42989;DHT22;28622;43.716;20.668;2022-09-30T06:34:31;17.80;99.90
42989;DHT22;28622;43.716;20.668;2022-09-30T06:36:57;18.00;99.90
42989;DHT22;28622;43.716;20.668;2022-09-30T06:39:22;18.00;99.90
42989;DHT22;28622;43.716;20.668;2022-09-30T06:41:48;18.10;99.90
42989;DHT22;28622;43.716;20.668;2022-09-30T06:44:14;18.10;99.90
42989;DHT22;28622;43.716;20.668;2022-09-30T06:46:40;18.10;99.90
42989;DHT22;28622;43.716;20.668;2022-09-30T06:49:05;18.20;99.90
42989;DHT22;28622;43.716;20.668;2022-09-30T06:51:32;18.00;99.90
42989;DHT22;28622;43.716;20.668;2022-09-30T06:53:58;17.90;99.90
42989;DHT22;28622;43.716;20.668;2022-09-30T06:56:25;17.90;99.90
42989;DHT22;28622;43.716;20.668;2022-09-30T06:58:52;17.80;99.90
42989;DHT22;28622;43.716;20.668;2022-09-30T07:01:17;17.70;99.90
42989;DHT22;28622;43.716;20.668;2022-09-30T07:03:45;17.70;99.90
42989;DHT22;28622;43.716;20.668;2022-09-30T07:06:13;17.80;99.90
42989;DHT22;28622;43.716;20.668;2022-09-30T07:08:39;17.80;99.90
42989;DHT22;28622;43.716;20.668;2022-09-30T07:11:11;17.90;99.90
42989;DHT22;28622;43.716;20.668;2022-09-30T07:13:41;18.00;99.90
42989;DHT22;28622;43.716;20.668;2022-09-30T07:16:08;18.10;99.90
42989;DHT22;28622;43.716;20.668;2022-09-30T07:18:37;18.20;99.90
42989;DHT22;28622;43.716;20.668;2022-09-30T07:21:03;18.40;99.90
42989;DHT22;28622;43.716;20.668;2022-09-30T07:23:29;18.70;99.90
42989;DHT22;28622;43.716;20.668;2022-09-30T07:25:58;18.60;99.90
42989;DHT22;28622;43.716;20.668;2022-09-30T07:28:27;18.80;99.90
42989;DHT22;28622;43.716;20.668;2022-09-30T07:30:58;18.90;99.90
42989;DHT22;28622;43.716;20.668;2022-09-30T07:33:26;19.00;99.90
42989;DHT22;28622;43.716;20.668;2022-09-30T07:35:55;19.20;99.90
42989;DHT22;28622;43.716;20.668;2022-09-30T07:38:23;19.50;99.90
42989;DHT22;28622;43.716;20.668;2022-09-30T07:41:11;19.60;99.90
42989;DHT22;28622;43.716;20.668;2022-09-30T07:43:39;19.80;99.90
42989;DHT22;28622;43.716;20.668;2022-09-30T07:46:10;19.80;99.90
42989;DHT22;28622;43.716;20.668;2022-09-30T07:48:38;20.00;99.90
42989;DHT22;28622;43.716;20.668;2022-09-30T07:53:39;20.20;99.90
42989;DHT22;28622;43.716;20.668;2022-09-30T07:56:06;20.50;99.90
42989;DHT22;28622;43.716;20.668;2022-09-30T07:58:32;20.50;99.90
42989;DHT22;28622;43.716;20.668;2022-09-30T08:00:58;21.10;99.90
42989;DHT22;28622;43.716;20.668;2022-09-30T08:03:24;21.30;99.90
42989;DHT22;28622;43.716;20.668;2022-09-30T08:05:50;21.40;99.90
42989;DHT22;28622;43.716;20.668;2022-09-30T08:08:16;21.80;99.90
42989;DHT22;28622;43.716;20.668;2022-09-30T08:10:42;22.50;99.90
42989;DHT22;28622;43.716;20.668;2022-09-30T08:13:08;23.10;99.90
42989;DHT22;28622;43.716;20.668;2022-09-30T08:15:35;23.30;99.90
42989;DHT22;28622;43.716;20.668;2022-09-30T08:18:00;23.90;99.90
42989;DHT22;28622;43.716;20.668;2022-09-30T08:20:26;24.40;99.90
42989;DHT22;28622;43.716;20.668;2022-09-30T08:22:53;25.00;99.90
42989;DHT22;28622;43.716;20.668;2022-09-30T08:25:21;25.10;99.30
42989;DHT22;28622;43.716;20.668;2022-09-30T08:27:47;25.30;97.20
42989;DHT22;28622;43.716;20.668;2022-09-30T08:30:13;25.60;96.90
42989;DHT22;28622;43.716;20.668;2022-09-30T08:32:39;25.70;96.00
42989;DHT22;28622;43.716;20.668;2022-09-30T08:35:05;25.90;95.90
42989;DHT22;28622;43.716;20.668;2022-09-30T08:37:31;26.10;95.80
42989;DHT22;28622;43.716;20.668;2022-09-30T08:39:56;26.30;95.10
42989;DHT22;28622;43.716;20.668;2022-09-30T08:45:25;26.50;94.10
42989;DHT22;28622;43.716;20.668;2022-09-30T08:53:40;27.00;92.20
42989;DHT22;28622;43.716;20.668;2022-09-30T08:56:07;27.30;91.60
42989;DHT22;28622;43.716;20.668;2022-09-30T08:58:40;27.40;92.10
42989;DHT22;28622;43.716;20.668;2022-09-30T09:03:57;27.40;91.50
42989;DHT22;28622;43.716;20.668;2022-09-30T09:06:52;27.70;90.50
42989;DHT22;28622;43.716;20.668;2022-09-30T09:12:14;27.10;90.30
42989;DHT22;28622;43.716;20.668;2022-09-30T09:17:55;25.90;90.50
42989;DHT22;28622;43.716;20.668;2022-09-30T09:20:31;25.30;91.20
42989;DHT22;28622;43.716;20.668;2022-09-30T09:23:01;25.70;91.50
42989;DHT22;28622;43.716;20.668;2022-09-30T09:27:56;27.10;88.40
42989;DHT22;28622;43.716;20.668;2022-09-30T09:30:24;27.80;88.00
42989;DHT22;28622;43.716;20.668;2022-09-30T09:32:56;27.70;86.40
42989;DHT22;28622;43.716;20.668;2022-09-30T09:43:49;26.80;88.00
42989;DHT22;28622;43.716;20.668;2022-09-30T09:54:42;26.10;89.20
42989;DHT22;28622;43.716;20.668;2022-09-30T09:57:17;26.00;90.10
42989;DHT22;28622;43.716;20.668;2022-09-30T10:00:00;25.80;90.20
42989;DHT22;28622;43.716;20.668;2022-09-30T10:05:44;25.80;90.30
42989;DHT22;28622;43.716;20.668;2022-09-30T10:08:20;26.20;90.50
42989;DHT22;28622;43.716;20.668;2022-09-30T10:10:49;26.40;89.20
42989;DHT22;28622;43.716;20.668;2022-09-30T10:13:23;27.20;88.30
42989;DHT22;28622;43.716;20.668;2022-09-30T10:15:57;27.60;87.50
42989;DHT22;28622;43.716;20.668;2022-09-30T10:21:22;27.30;86.50
42989;DHT22;28622;43.716;20.668;2022-09-30T10:23:46;28.10;86.60
42989;DHT22;28622;43.716;20.668;2022-09-30T10:26:18;28.60;81.50
42989;DHT22;28622;43.716;20.668;2022-09-30T10:31:36;29.00;82.80
42989;DHT22;28622;43.716;20.668;2022-09-30T10:36:47;29.00;81.70
42989;DHT22;28622;43.716;20.668;2022-09-30T10:39:23;29.30;77.80
42989;DHT22;28622;43.716;20.668;2022-09-30T10:44:45;29.50;77.80
42989;DHT22;28622;43.716;20.668;2022-09-30T10:52:23;30.00;81.30
42989;DHT22;28622;43.716;20.668;2022-09-30T10:57:27;29.60;78.60
42989;DHT22;28622;43.716;20.668;2022-09-30T11:02:39;29.00;88.80
42989;DHT22;28622;43.716;20.668;2022-09-30T11:11:02;28.90;78.50
42989;DHT22;28622;43.716;20.668;2022-09-30T11:13:57;28.70;77.80
42989;DHT22;28622;43.716;20.668;2022-09-30T11:22:48;28.90;78.90
42989;DHT22;28622;43.716;20.668;2022-09-30T11:24:49;28.90;77.90
42989;DHT22;28622;43.716;20.668;2022-09-30T11:35:34;28.00;77.90
42989;DHT22;28622;43.716;20.668;2022-09-30T11:40:49;28.20;77.40
42989;DHT22;28622;43.716;20.668;2022-09-30T11:51:22;28.20;79.80
42989;DHT22;28622;43.716;20.668;2022-09-30T11:59:18;27.50;79.70
42989;DHT22;28622;43.716;20.668;2022-09-30T12:01:49;28.10;80.00
42989;DHT22;28622;43.716;20.668;2022-09-30T12:09:36;28.70;76.50
42989;DHT22;28622;43.716;20.668;2022-09-30T12:12:12;29.10;77.70
42989;DHT22;28622;43.716;20.668;2022-09-30T12:14:50;28.90;75.50
42989;DHT22;28622;43.716;20.668;2022-09-30T12:17:36;28.80;75.70
42989;DHT22;28622;43.716;20.668;2022-09-30T12:20:23;28.90;76.20
42989;DHT22;28622;43.716;20.668;2022-09-30T12:23:04;29.10;77.50
42989;DHT22;28622;43.716;20.668;2022-09-30T12:25:40;28.90;74.90
42989;DHT22;28622;43.716;20.668;2022-09-30T12:28:43;28.90;75.00
42989;DHT22;28622;43.716;20.668;2022-09-30T12:38:01;28.70;77.20
42989;DHT22;28622;43.716;20.668;2022-09-30T12:46:27;28.80;75.50
42989;DHT22;28622;43.716;20.668;2022-09-30T12:48:59;28.80;75.40
42989;DHT22;28622;43.716;20.668;2022-09-30T12:51:28;29.00;76.30
42989;DHT22;28622;43.716;20.668;2022-09-30T12:54:02;29.40;75.10
42989;DHT22;28622;43.716;20.668;2022-09-30T12:56:32;29.10;76.00
42989;DHT22;28622;43.716;20.668;2022-09-30T12:59:23;29.00;75.30
42989;DHT22;28622;43.716;20.668;2022-09-30T13:01:50;29.10;73.40
42989;DHT22;28622;43.716;20.668;2022-09-30T13:04:37;28.80;73.80
42989;DHT22;28622;43.716;20.668;2022-09-30T13:07:06;29.10;75.20
42989;DHT22;28622;43.716;20.668;2022-09-30T13:09:55;29.00;74.30
42989;DHT22;28622;43.716;20.668;2022-09-30T13:12:40;28.90;73.50
42989;DHT22;28622;43.716;20.668;2022-09-30T13:17:53;29.00;73.70
42989;DHT22;28622;43.716;20.668;2022-09-30T13:23:48;28.80;74.20
42989;DHT22;28622;43.716;20.668;2022-09-30T13:26:33;28.90;73.30
42989;DHT22;28622;43.716;20.668;2022-09-30T13:31:27;28.80;73.60
42989;DHT22;28622;43.716;20.668;2022-09-30T13:39:30;29.10;73.40
42989;DHT22;28622;43.716;20.668;2022-09-30T13:42:24;29.00;74.60
42989;DHT22;28622;43.716;20.668;2022-09-30T13:45:18;29.10;74.60
42989;DHT22;28622;43.716;20.668;2022-09-30T13:50:46;29.10;75.00
42989;DHT22;28622;43.716;20.668;2022-09-30T13:53:37;28.90;72.90
42989;DHT22;28622;43.716;20.668;2022-09-30T13:56:27;28.80;73.60
42989;DHT22;28622;43.716;20.668;2022-09-30T14:18:47;28.10;74.20
42989;DHT22;28622;43.716;20.668;2022-09-30T14:21:36;28.40;99.10
42989;DHT22;28622;43.716;20.668;2022-09-30T14:32:17;27.40;74.60
42989;DHT22;28622;43.716;20.668;2022-09-30T14:34:44;27.40;80.10
42989;DHT22;28622;43.716;20.668;2022-09-30T14:37:30;27.30;89.00
42989;DHT22;28622;43.716;20.668;2022-09-30T14:42:32;26.90;75.00
42989;DHT22;28622;43.716;20.668;2022-09-30T14:47:37;26.60;75.90
42989;DHT22;28622;43.716;20.668;2022-09-30T14:50:33;26.60;77.50
42989;DHT22;28622;43.716;20.668;2022-09-30T14:53:03;26.40;78.20
42989;DHT22;28622;43.716;20.668;2022-09-30T14:55:34;26.40;78.40
42989;DHT22;28622;43.716;20.668;2022-09-30T14:58:39;25.30;90.10
42989;DHT22;28622;43.716;20.668;2022-09-30T15:03:40;26.10;79.80
42989;DHT22;28622;43.716;20.668;2022-09-30T15:08:48;25.90;79.60
42989;DHT22;28622;43.716;20.668;2022-09-30T15:11:23;25.90;81.10
42989;DHT22;28622;43.716;20.668;2022-09-30T15:14:03;25.70;81.50
42989;DHT22;28622;43.716;20.668;2022-09-30T15:16:31;25.70;81.80
42989;DHT22;28622;43.716;20.668;2022-09-30T15:18:59;25.60;82.70
42989;DHT22;28622;43.716;20.668;2022-09-30T15:21:27;25.70;82.50
42989;DHT22;28622;43.716;20.668;2022-09-30T15:23:56;25.40;83.30
42989;DHT22;28622;43.716;20.668;2022-09-30T15:26:26;25.40;82.80
42989;DHT22;28622;43.716;20.668;2022-09-30T15:28:52;25.40;83.30
42989;DHT22;28622;43.716;20.668;2022-09-30T15:31:26;25.40;83.60
42989;DHT22;28622;43.716;20.668;2022-09-30T15:34:25;25.40;84.60
42989;DHT22;28622;43.716;20.668;2022-09-30T15:37:03;25.40;94.40
42989;DHT22;28622;43.716;20.668;2022-09-30T15:39:35;25.40;90.50
42989;DHT22;28622;43.716;20.668;2022-09-30T15:42:34;25.20;84.00
42989;DHT22;28622;43.716;20.668;2022-09-30T15:45:26;25.10;84.10
42989;DHT22;28622;43.716;20.668;2022-09-30T15:47:59;25.00;84.30
42989;DHT22;28622;43.716;20.668;2022-09-30T15:50:41;25.00;85.00
42989;DHT22;28622;43.716;20.668;2022-09-30T15:53:31;25.00;84.70
42989;DHT22;28622;43.716;20.668;2022-09-30T15:56:23;24.90;84.50
42989;DHT22;28622;43.716;20.668;2022-09-30T15:58:58;24.90;84.80
42989;DHT22;28622;43.716;20.668;2022-09-30T16:03:59;24.80;91.10
42989;DHT22;28622;43.716;20.668;2022-09-30T16:06:32;24.70;86.30
42989;DHT22;28622;43.716;20.668;2022-09-30T16:09:04;24.60;86.30
42989;DHT22;28622;43.716;20.668;2022-09-30T16:11:38;24.60;89.10
42989;DHT22;28622;43.716;20.668;2022-09-30T16:14:20;24.60;89.50
42989;DHT22;28622;43.716;20.668;2022-09-30T16:16:58;24.50;91.70
42989;DHT22;28622;43.716;20.668;2022-09-30T16:19:29;24.50;99.90
42989;DHT22;28622;43.716;20.668;2022-09-30T16:21:56;24.50;99.90
42989;DHT22;28622;43.716;20.668;2022-09-30T16:26:59;24.20;88.10
42989;DHT22;28622;43.716;20.668;2022-09-30T16:29:40;24.10;88.50
42989;DHT22;28622;43.716;20.668;2022-09-30T16:32:08;24.00;90.30
42989;DHT22;28622;43.716;20.668;2022-09-30T16:34:35;23.90;90.60
42989;DHT22;28622;43.716;20.668;2022-09-30T16:37:08;23.70;90.60
42989;DHT22;28622;43.716;20.668;2022-09-30T16:39:35;23.60;91.10
42989;DHT22;28622;43.716;20.668;2022-09-30T16:42:01;23.10;91.60
42989;DHT22;28622;43.716;20.668;2022-09-30T16:44:32;23.20;92.00
42989;DHT22;28622;43.716;20.668;2022-09-30T16:47:02;23.20;92.80
42989;DHT22;28622;43.716;20.668;2022-09-30T16:49:27;22.90;96.40
42989;DHT22;28622;43.716;20.668;2022-09-30T16:51:55;22.80;99.90
42989;DHT22;28622;43.716;20.668;2022-09-30T16:54:21;22.60;99.90
42989;DHT22;28622;43.716;20.668;2022-09-30T16:56:47;22.70;99.90
42989;DHT22;28622;43.716;20.668;2022-09-30T16:59:15;22.50;95.40
42989;DHT22;28622;43.716;20.668;2022-09-30T17:01:42;22.20;95.50
42989;DHT22;28622;43.716;20.668;2022-09-30T17:04:10;22.10;95.40
42989;DHT22;28622;43.716;20.668;2022-09-30T17:06:36;21.90;96.10
42989;DHT22;28622;43.716;20.668;2022-09-30T17:09:03;21.90;96.60
42989;DHT22;28622;43.716;20.668;2022-09-30T17:11:31;21.80;96.70
42989;DHT22;28622;43.716;20.668;2022-09-30T17:16:25;21.70;96.50
42989;DHT22;28622;43.716;20.668;2022-09-30T17:18:51;21.70;96.40
42989;DHT22;28622;43.716;20.668;2022-09-30T17:21:23;21.70;96.30
42989;DHT22;28622;43.716;20.668;2022-09-30T17:23:49;21.70;96.40
42989;DHT22;28622;43.716;20.668;2022-09-30T17:26:16;21.60;96.50
42989;DHT22;28622;43.716;20.668;2022-09-30T17:28:43;21.50;96.70
42989;DHT22;28622;43.716;20.668;2022-09-30T17:31:09;21.40;97.00
42989;DHT22;28622;43.716;20.668;2022-09-30T17:33:37;21.30;97.90
42989;DHT22;28622;43.716;20.668;2022-09-30T17:36:14;21.20;98.10
42989;DHT22;28622;43.716;20.668;2022-09-30T17:38:40;21.10;98.50
42989;DHT22;28622;43.716;20.668;2022-09-30T17:41:06;20.90;98.90
42989;DHT22;28622;43.716;20.668;2022-09-30T17:43:50;20.90;99.00
42989;DHT22;28622;43.716;20.668;2022-09-30T17:46:18;20.80;99.40
42989;DHT22;28622;43.716;20.668;2022-09-30T17:48:46;20.80;99.00
42989;DHT22;28622;43.716;20.668;2022-09-30T17:51:13;20.80;98.90
42989;DHT22;28622;43.716;20.668;2022-09-30T17:53:41;20.90;99.00
42989;DHT22;28622;43.716;20.668;2022-09-30T17:56:20;20.80;99.90
42989;DHT22;28622;43.716;20.668;2022-09-30T17:58:49;20.60;99.90
42989;DHT22;28622;43.716;20.668;2022-09-30T18:01:16;20.60;99.90
42989;DHT22;28622;43.716;20.668;2022-09-30T18:03:43;20.40;99.90
42989;DHT22;28622;43.716;20.668;2022-09-30T18:06:10;20.30;99.90
42989;DHT22;28622;43.716;20.668;2022-09-30T18:08:36;20.20;99.90
42989;DHT22;28622;43.716;20.668;2022-09-30T18:11:02;20.30;99.90
42989;DHT22;28622;43.716;20.668;2022-09-30T18:13:28;20.10;99.90
42989;DHT22;28622;43.716;20.668;2022-09-30T18:15:55;20.10;99.90
42989;DHT22;28622;43.716;20.668;2022-09-30T18:18:24;20.10;99.90
42989;DHT22;28622;43.716;20.668;2022-09-30T18:20:49;20.10;99.90
42989;DHT22;28622;43.716;20.668;2022-09-30T18:23:17;19.90;99.90
42989;DHT22;28622;43.716;20.668;2022-09-30T18:25:46;19.80;99.90
42989;DHT22;28622;43.716;20.668;2022-09-30T18:28:14;19.70;99.90
42989;DHT22;28622;43.716;20.668;2022-09-30T18:30:41;19.60;99.90
42989;DHT22;28622;43.716;20.668;2022-09-30T18:33:08;19.60;99.90
42989;DHT22;28622;43.716;20.668;2022-09-30T18:35:38;19.60;99.90
42989;DHT22;28622;43.716;20.668;2022-09-30T18:38:05;19.40;99.90
42989;DHT22;28622;43.716;20.668;2022-09-30T18:40:31;19.40;99.90
42989;DHT22;28622;43.716;20.668;2022-09-30T18:43:01;19.30;99.90
42989;DHT22;28622;43.716;20.668;2022-09-30T18:45:29;19.20;99.90
42989;DHT22;28622;43.716;20.668;2022-09-30T18:47:57;19.10;99.90
42989;DHT22;28622;43.716;20.668;2022-09-30T18:50:24;19.10;99.90
42989;DHT22;28622;43.716;20.668;2022-09-30T18:52:51;19.00;99.90
42989;DHT22;28622;43.716;20.668;2022-09-30T18:55:18;18.90;99.90
42989;DHT22;28622;43.716;20.668;2022-09-30T18:57:44;18.80;99.90
42989;DHT22;28622;43.716;20.668;2022-09-30T19:00:14;18.80;99.90
42989;DHT22;28622;43.716;20.668;2022-09-30T19:02:41;18.40;99.90
42989;DHT22;28622;43.716;20.668;2022-09-30T19:05:10;18.60;99.90
42989;DHT22;28622;43.716;20.668;2022-09-30T19:07:36;18.50;99.90
42989;DHT22;28622;43.716;20.668;2022-09-30T19:10:06;18.40;99.90
42989;DHT22;28622;43.716;20.668;2022-09-30T19:12:33;18.40;99.90
42989;DHT22;28622;43.716;20.668;2022-09-30T19:15:04;18.30;99.90
42989;DHT22;28622;43.716;20.668;2022-09-30T19:17:31;18.20;99.90
42989;DHT22;28622;43.716;20.668;2022-09-30T19:19:58;18.00;99.90
42989;DHT22;28622;43.716;20.668;2022-09-30T19:22:28;18.00;99.90
42989;DHT22;28622;43.716;20.668;2022-09-30T19:24:55;18.00;99.90
42989;DHT22;28622;43.716;20.668;2022-09-30T19:27:21;18.00;99.90
42989;DHT22;28622;43.716;20.668;2022-09-30T19:29:51;18.00;99.90
42989;DHT22;28622;43.716;20.668;2022-09-30T19:32:18;17.90;99.90
42989;DHT22;28622;43.716;20.668;2022-09-30T19:34:45;17.90;99.90
42989;DHT22;28622;43.716;20.668;2022-09-30T19:37:11;17.90;99.90
42989;DHT22;28622;43.716;20.668;2022-09-30T19:39:40;17.80;99.90
42989;DHT22;28622;43.716;20.668;2022-09-30T19:42:06;17.80;99.90
42989;DHT22;28622;43.716;20.668;2022-09-30T19:44:32;17.80;99.90
42989;DHT22;28622;43.716;20.668;2022-09-30T19:46:57;17.70;99.90